Time;durP1;ratioP1;P1;durP2;ratioP2;P2;SDS_P1;SDS_P2;PMS_P1;PMS_P2;Temp;Humidity;BMP_temperature;BMP_pressure;BME280_temperature;BME280_humidity;BME280_pressure;Samples;Min_cycle;Max_cycle;Signal;HPM_P1;HPM_P2
2023/09/28 00:01:35;;;;;;;8.00;7.30;;;18.20;99.90;;;;;;5039432;28;20343;-67
2023/09/28 00:04:02;;;;;;;8.85;7.95;;;18.20;99.90;;;;;;5027374;28;20053;-66
2023/09/28 00:06:28;;;;;;;8.57;7.75;;;18.10;99.90;;;;;;5039247;28;20072;-66
2023/09/28 00:08:53;;;;;;;10.80;8.05;;;18.10;99.90;;;;;;5034113;28;20155;-66
2023/09/28 00:11:19;;;;;;;9.75;8.05;;;18.10;99.90;;;;;;5035590;28;20094;-66
2023/09/28 01:26:40;;;;;;;7.43;6.68;;;18.10;99.90;;;;;;5006754;28;20603;-66
2023/09/28 01:29:06;;;;;;;7.78;7.07;;;18.10;99.90;;;;;;5000894;28;20066;-66
2023/09/28 01:31:32;;;;;;;8.35;7.20;;;18.10;99.90;;;;;;4995151;28;20054;-66
2023/09/28 01:33:58;;;;;;;7.32;6.63;;;18.20;99.90;;;;;;4999147;28;20042;-67
2023/09/28 01:36:24;;;;;;;7.93;6.22;;;18.20;99.90;;;;;;5002303;28;20499;-67
2023/09/28 01:38:57;;;;;;;7.18;6.45;;;18.20;99.90;;;;;;4993924;28;20042;-65
2023/09/28 01:41:23;;;;;;;7.07;6.18;;;18.20;99.90;;;;;;5001391;28;20045;-67
2023/09/28 01:43:48;;;;;;;9.00;6.03;;;18.20;99.90;;;;;;4999677;28;20629;-66
2023/09/28 01:46:14;;;;;;;6.78;6.05;;;18.20;99.90;;;;;;4988145;28;20077;-66
2023/09/28 01:48:40;;;;;;;7.28;6.00;;;18.20;99.90;;;;;;5000672;28;20193;-66
2023/09/28 01:51:06;;;;;;;6.38;5.78;;;18.20;99.90;;;;;;5001874;28;20045;-66
2023/09/28 01:53:32;;;;;;;6.63;6.00;;;18.20;99.90;;;;;;4999425;28;20116;-66
2023/09/28 01:55:59;;;;;;;7.85;5.80;;;18.20;99.90;;;;;;5000635;28;20319;-65
2023/09/28 01:58:26;;;;;;;6.50;5.88;;;18.20;99.90;;;;;;4977947;28;20057;-66
2023/09/28 02:00:51;;;;;;;9.80;6.00;;;18.20;99.90;;;;;;4996624;28;20621;-67
2023/09/28 02:03:17;;;;;;;6.80;6.03;;;18.10;99.90;;;;;;4996898;28;20242;-67
2023/09/28 02:05:43;;;;;;;6.15;5.55;;;18.10;99.90;;;;;;4999112;28;20034;-66
2023/09/28 02:08:09;;;;;;;6.72;5.85;;;18.00;99.90;;;;;;4999256;28;20037;-67
2023/09/28 02:10:35;;;;;;;6.10;5.47;;;18.00;99.90;;;;;;4991084;28;20038;-66
2023/09/28 02:13:00;;;;;;;6.00;5.38;;;18.00;99.90;;;;;;4997957;28;20106;-67
2023/09/28 02:15:27;;;;;;;5.80;5.30;;;18.00;99.90;;;;;;4998807;28;20057;-66
2023/09/28 02:17:52;;;;;;;6.68;5.45;;;18.00;99.90;;;;;;4998786;28;20041;-68
2023/09/28 02:20:22;;;;;;;5.18;4.72;;;18.00;99.90;;;;;;4996198;28;20045;-67
2023/09/28 02:22:48;;;;;;;6.95;4.60;;;17.90;99.90;;;;;;5000034;28;20162;-67
2023/09/28 02:25:17;;;;;;;5.40;4.45;;;17.90;99.90;;;;;;5031909;28;20466;-67
2023/09/28 02:27:47;;;;;;;5.35;4.47;;;17.90;99.90;;;;;;5038623;28;20053;-66
2023/09/28 02:30:17;;;;;;;6.90;5.28;;;17.90;99.90;;;;;;5038297;28;20249;-67
2023/09/28 02:32:43;;;;;;;6.75;4.60;;;17.90;99.90;;;;;;5039244;28;20595;-68
2023/09/28 02:35:11;;;;;;;6.93;4.95;;;17.80;99.90;;;;;;5042698;28;20094;-68
2023/09/28 02:37:37;;;;;;;5.43;4.57;;;17.80;99.90;;;;;;5033367;28;20458;-65
2023/09/28 02:40:07;;;;;;;8.30;4.65;;;17.70;99.90;;;;;;5033608;28;20040;-65
2023/09/28 02:42:33;;;;;;;5.72;4.70;;;17.60;99.90;;;;;;5015505;28;20155;-66
2023/09/28 02:44:59;;;;;;;5.80;5.20;;;17.60;99.90;;;;;;5053079;28;20270;-66
2023/09/28 02:47:26;;;;;;;6.50;4.78;;;17.60;99.90;;;;;;5035891;28;20044;-67
2023/09/28 02:49:52;;;;;;;5.40;4.85;;;17.60;99.90;;;;;;5038107;28;20052;-66
2023/09/28 02:52:18;;;;;;;6.80;5.45;;;17.50;99.90;;;;;;5046985;28;20558;-66
2023/09/28 02:54:43;;;;;;;7.22;5.07;;;17.50;99.90;;;;;;5041192;28;20553;-66
2023/09/28 02:57:09;;;;;;;7.38;5.32;;;17.40;99.90;;;;;;5036249;28;20036;-66
2023/09/28 02:59:36;;;;;;;6.00;5.32;;;17.40;99.90;;;;;;5038143;28;20565;-66
2023/09/28 03:02:03;;;;;;;7.55;5.15;;;17.30;99.90;;;;;;5035512;28;20067;-66
2023/09/28 03:04:33;;;;;;;6.45;5.00;;;17.30;99.90;;;;;;5036527;28;20051;-66
2023/09/28 03:06:59;;;;;;;8.02;5.32;;;17.30;99.90;;;;;;5035674;28;20067;-66
2023/09/28 03:09:26;;;;;;;8.55;5.07;;;17.30;99.90;;;;;;5033606;28;20072;-67
2023/09/28 03:11:51;;;;;;;8.23;5.50;;;17.30;99.90;;;;;;5038416;28;20045;-67
2023/09/28 03:14:19;;;;;;;6.95;5.20;;;17.30;99.90;;;;;;5044045;28;20051;-66
2023/09/28 03:16:44;;;;;;;6.68;5.47;;;17.30;99.90;;;;;;5045744;28;20032;-66
2023/09/28 03:19:10;;;;;;;8.18;5.40;;;17.20;99.90;;;;;;5042897;28;20036;-66
2023/09/28 03:21:36;;;;;;;7.72;5.53;;;17.20;99.90;;;;;;5028749;28;20040;-66
2023/09/28 03:24:02;;;;;;;7.15;5.78;;;17.10;99.90;;;;;;5044903;28;20052;-66
2023/09/28 03:26:30;;;;;;;5.90;5.30;;;17.10;99.90;;;;;;5030796;28;20658;-67
2023/09/28 03:28:59;;;;;;;9.15;5.63;;;17.00;99.90;;;;;;5008611;28;20573;-65
2023/09/28 03:31:27;;;;;;;5.85;5.03;;;17.00;99.90;;;;;;5022433;28;20414;-65
2023/09/28 03:33:54;;;;;;;7.68;5.80;;;16.90;99.90;;;;;;5045832;28;20040;-64
2023/09/28 03:36:19;;;;;;;7.68;5.30;;;17.00;99.90;;;;;;5043881;28;20403;-67
2023/09/28 03:38:46;;;;;;;5.90;5.30;;;16.90;99.90;;;;;;5045255;28;20044;-67
2023/09/28 03:41:12;;;;;;;6.78;5.55;;;16.90;99.90;;;;;;5046233;28;20036;-67
2023/09/28 03:43:38;;;;;;;7.80;5.63;;;16.90;99.90;;;;;;5026426;28;20043;-66
2023/09/28 03:46:04;;;;;;;7.90;5.90;;;16.80;99.90;;;;;;5045283;28;20497;-66
2023/09/28 03:48:30;;;;;;;9.32;5.78;;;16.80;99.90;;;;;;5042725;28;20322;-67
2023/09/28 03:50:56;;;;;;;10.15;5.95;;;16.80;99.90;;;;;;5042637;28;20037;-66
2023/09/28 03:53:22;;;;;;;9.05;5.85;;;16.80;99.90;;;;;;5039594;28;20621;-65
2023/09/28 03:55:49;;;;;;;6.63;5.57;;;16.70;99.90;;;;;;5015403;28;20469;-66
2023/09/28 03:58:16;;;;;;;6.60;5.93;;;16.80;99.90;;;;;;5035123;28;20045;-66
2023/09/28 04:00:42;;;;;;;9.80;5.63;;;16.70;99.90;;;;;;5036766;28;20050;-66
2023/09/28 04:03:08;;;;;;;6.10;5.60;;;16.70;99.90;;;;;;5034782;28;20300;-66
2023/09/28 04:05:34;;;;;;;7.30;5.95;;;16.70;99.90;;;;;;5037507;28;20041;-66
2023/09/28 04:08:00;;;;;;;6.68;6.03;;;16.60;99.90;;;;;;5035350;28;20040;-66
2023/09/28 04:10:26;;;;;;;9.48;6.55;;;16.60;99.90;;;;;;5054071;28;20331;-65
2023/09/28 04:12:54;;;;;;;7.05;6.35;;;16.60;99.90;;;;;;5034697;28;20110;-66
2023/09/28 04:15:21;;;;;;;7.05;6.25;;;16.50;99.90;;;;;;5019517;28;20392;-64
2023/09/28 04:17:47;;;;;;;7.32;6.25;;;16.50;99.90;;;;;;5020584;28;20032;-64
2023/09/28 04:20:13;;;;;;;6.78;6.15;;;16.40;99.90;;;;;;5014139;28;20043;-64
2023/09/28 04:22:39;;;;;;;8.40;6.45;;;16.40;99.90;;;;;;5035964;28;20107;-64
2023/09/28 04:25:05;;;;;;;8.85;6.32;;;16.40;99.90;;;;;;5035747;28;20793;-65
2023/09/28 04:27:31;;;;;;;7.38;6.55;;;16.30;99.90;;;;;;5035277;28;20264;-65
2023/09/28 04:29:57;;;;;;;8.00;6.50;;;16.30;99.90;;;;;;5030373;28;20073;-65
2023/09/28 04:32:23;;;;;;;7.88;6.85;;;16.20;99.90;;;;;;5047971;28;20502;-66
2023/09/28 04:34:49;;;;;;;9.00;6.82;;;16.20;99.90;;;;;;5030378;28;20075;-66
2023/09/28 04:37:16;;;;;;;7.97;7.00;;;16.20;99.90;;;;;;5026696;28;20041;-66
2023/09/28 04:39:42;;;;;;;9.48;7.10;;;16.20;99.90;;;;;;5052460;28;20450;-66
2023/09/28 04:42:08;;;;;;;9.93;6.72;;;16.10;99.90;;;;;;5046798;28;20507;-66
2023/09/28 04:44:34;;;;;;;10.02;6.68;;;16.10;99.90;;;;;;5027564;28;20044;-67
2023/09/28 04:46:59;;;;;;;10.52;6.95;;;16.10;99.90;;;;;;5030498;28;20367;-65
2023/09/28 04:49:25;;;;;;;9.55;7.05;;;16.00;99.90;;;;;;5027229;28;20346;-66
2023/09/28 04:51:51;;;;;;;9.60;7.07;;;16.00;99.90;;;;;;5027631;28;20041;-66
2023/09/28 04:54:17;;;;;;;9.68;6.82;;;16.10;99.90;;;;;;5026337;28;20080;-66
2023/09/28 04:56:43;;;;;;;8.57;7.38;;;16.10;99.90;;;;;;5043676;28;20538;-66
2023/09/28 04:59:09;;;;;;;12.13;7.95;;;16.10;99.90;;;;;;5031220;28;20040;-66
2023/09/28 05:01:34;;;;;;;8.88;6.70;;;16.00;99.90;;;;;;5053037;28;20072;-66
2023/09/28 05:04:00;;;;;;;10.25;7.38;;;16.00;99.90;;;;;;5033907;28;20044;-65
2023/09/28 05:06:27;;;;;;;9.73;8.05;;;15.90;99.90;;;;;;5042862;28;20102;-65
2023/09/28 05:08:53;;;;;;;11.18;8.20;;;15.90;99.90;;;;;;5032310;28;20119;-65
2023/09/28 05:11:18;;;;;;;9.50;7.97;;;15.90;99.90;;;;;;5030440;28;20459;-66
2023/09/28 05:13:44;;;;;;;8.98;7.68;;;15.80;99.90;;;;;;5049802;28;20042;-65
2023/09/28 05:16:10;;;;;;;11.23;8.18;;;15.80;99.90;;;;;;5049162;28;20375;-65
2023/09/28 05:18:36;;;;;;;11.60;7.65;;;15.80;99.90;;;;;;5049438;28;20045;-66
2023/09/28 05:21:02;;;;;;;10.60;8.80;;;15.70;99.90;;;;;;5053353;28;20078;-65
2023/09/28 05:23:28;;;;;;;10.35;8.13;;;15.80;99.90;;;;;;5053222;28;20085;-66
2023/09/28 05:25:54;;;;;;;16.83;9.13;;;15.80;99.90;;;;;;5043566;28;20128;-65
2023/09/28 05:28:20;;;;;;;10.60;9.00;;;15.80;99.90;;;;;;5051907;28;20167;-66
2023/09/28 05:30:46;;;;;;;11.27;8.98;;;15.80;99.90;;;;;;5032381;28;20411;-65
2023/09/28 05:33:12;;;;;;;15.38;9.15;;;15.70;99.90;;;;;;5030471;28;20037;-66
2023/09/28 05:35:37;;;;;;;13.15;9.80;;;15.70;99.90;;;;;;5051116;28;20478;-65
2023/09/28 05:38:03;;;;;;;11.20;9.07;;;15.70;99.90;;;;;;5049156;28;20037;-66
2023/09/28 05:40:29;;;;;;;13.40;9.27;;;15.60;99.90;;;;;;5051765;28;20368;-66
2023/09/28 05:42:55;;;;;;;13.65;10.10;;;15.60;99.90;;;;;;5049828;28;20045;-65
2023/09/28 05:45:20;;;;;;;14.98;9.30;;;15.60;99.90;;;;;;5031225;28;20129;-66
2023/09/28 05:47:47;;;;;;;13.85;8.75;;;15.60;99.90;;;;;;5048395;28;20045;-65
2023/09/28 05:50:13;;;;;;;13.52;9.05;;;15.70;99.90;;;;;;5049912;28;20076;-66
2023/09/28 05:52:39;;;;;;;13.75;8.88;;;15.80;99.90;;;;;;5047688;28;20422;-66
2023/09/28 05:55:05;;;;;;;10.48;7.85;;;15.80;99.90;;;;;;5049442;28;20037;-66
2023/09/28 05:57:31;;;;;;;14.27;7.43;;;15.80;99.90;;;;;;5027487;28;20033;-65
2023/09/28 05:59:57;;;;;;;12.82;6.43;;;16.00;99.90;;;;;;5048524;28;20035;-67
2023/09/28 06:02:22;;;;;;;13.40;6.63;;;16.00;99.90;;;;;;5050048;28;20650;-65
2023/09/28 06:04:48;;;;;;;10.60;5.72;;;16.10;99.90;;;;;;5049054;28;20056;-66
2023/09/28 06:07:14;;;;;;;12.93;6.07;;;16.10;99.90;;;;;;5052530;28;20356;-67
2023/09/28 06:09:43;;;;;;;11.85;6.15;;;16.20;99.90;;;;;;5046585;28;20148;-66
2023/09/28 06:12:09;;;;;;;11.63;5.88;;;16.30;99.90;;;;;;5050489;28;20757;-66
2023/09/28 06:14:35;;;;;;;10.95;5.85;;;16.30;99.90;;;;;;5048932;28;20579;-66
2023/09/28 06:17:00;;;;;;;9.70;5.22;;;16.30;99.90;;;;;;5052716;28;20131;-66
2023/09/28 06:19:27;;;;;;;13.82;6.40;;;16.30;99.90;;;;;;5029796;28;20746;-65
2023/09/28 06:21:54;;;;;;;11.75;5.60;;;16.40;99.90;;;;;;5052072;28;20490;-66
2023/09/28 06:24:20;;;;;;;13.10;5.85;;;16.40;99.90;;;;;;5047940;28;20552;-66
2023/09/28 06:26:46;;;;;;;15.32;6.60;;;16.40;99.90;;;;;;5049902;28;20052;-66
2023/09/28 06:29:12;;;;;;;12.35;5.80;;;16.50;99.90;;;;;;5009963;28;20477;-66
2023/09/28 06:31:38;;;;;;;11.32;5.90;;;16.50;99.90;;;;;;5029367;28;20106;-66
2023/09/28 06:34:03;;;;;;;13.82;7.13;;;16.50;99.90;;;;;;5049844;28;20110;-66
2023/09/28 06:36:29;;;;;;;13.48;7.55;;;16.60;99.90;;;;;;5047314;28;20080;-67
2023/09/28 06:38:55;;;;;;;11.35;6.78;;;16.60;99.90;;;;;;5046732;28;20033;-66
2023/09/28 06:41:21;;;;;;;8.90;6.63;;;16.70;99.90;;;;;;5016158;28;20399;-67
2023/09/28 06:43:48;;;;;;;11.32;6.60;;;16.80;99.90;;;;;;5048912;28;20601;-65
2023/09/28 06:46:14;;;;;;;10.98;6.88;;;16.90;99.90;;;;;;5045513;28;20379;-66
2023/09/28 06:48:41;;;;;;;11.38;6.80;;;16.90;99.90;;;;;;5023898;28;20049;-66
2023/09/28 06:51:06;;;;;;;9.18;6.43;;;16.90;99.90;;;;;;5039819;28;20061;-66
2023/09/28 06:53:33;;;;;;;11.10;6.82;;;16.90;99.90;;;;;;5053826;28;20505;-66
2023/09/28 06:56:02;;;;;;;8.90;6.00;;;16.90;99.90;;;;;;5044680;28;20053;-66
2023/09/28 06:58:28;;;;;;;12.95;6.18;;;16.90;99.90;;;;;;5046686;28;20043;-65
2023/09/28 07:00:53;;;;;;;15.90;6.38;;;17.00;99.90;;;;;;5045107;28;20045;-66
2023/09/28 07:03:20;;;;;;;11.70;5.82;;;17.20;99.90;;;;;;5020949;28;20056;-65
2023/09/28 07:05:46;;;;;;;13.70;6.22;;;17.40;99.90;;;;;;5048941;28;20040;-65
2023/09/28 07:08:12;;;;;;;13.65;4.97;;;17.60;99.90;;;;;;5043808;28;20186;-66
2023/09/28 07:10:38;;;;;;;10.45;4.75;;;17.80;99.90;;;;;;5044712;28;20124;-65
2023/09/28 07:13:05;;;;;;;13.45;5.00;;;18.10;99.90;;;;;;5045598;28;20499;-65
2023/09/28 07:15:34;;;;;;;12.95;4.93;;;18.20;99.90;;;;;;5027800;28;20094;-65
2023/09/28 07:18:00;;;;;;;10.38;4.25;;;18.50;99.90;;;;;;5046918;28;20075;-66
2023/09/28 07:20:27;;;;;;;11.57;4.22;;;18.60;99.90;;;;;;5048510;28;20083;-65
2023/09/28 07:22:53;;;;;;;13.90;4.20;;;18.60;99.90;;;;;;5032015;28;20044;-64
2023/09/28 07:25:20;;;;;;;16.88;3.83;;;18.70;99.90;;;;;;5045072;28;20052;-64
2023/09/28 07:27:49;;;;;;;17.10;4.05;;;18.90;99.90;;;;;;5043676;28;20057;-65
2023/09/28 07:30:18;;;;;;;17.58;3.88;;;19.00;99.90;;;;;;5047483;28;20040;-67
2023/09/28 07:32:45;;;;;;;16.23;2.97;;;19.30;99.90;;;;;;5060306;28;20581;-64
2023/09/28 07:35:11;;;;;;;17.58;3.47;;;19.30;99.90;;;;;;5014766;28;20074;-64
2023/09/28 07:37:42;;;;;;;16.55;3.40;;;19.40;99.90;;;;;;5045605;28;20083;-65
2023/09/28 07:40:12;;;;;;;18.92;3.65;;;19.60;99.90;;;;;;5036928;28;20059;-65
2023/09/28 07:42:43;;;;;;;17.23;3.63;;;19.70;99.90;;;;;;5017547;28;20052;-64
2023/09/28 07:45:11;;;;;;;16.40;3.28;;;19.90;99.90;;;;;;5034694;28;20063;-65
2023/09/28 07:47:38;;;;;;;17.77;3.53;;;20.00;99.90;;;;;;5033999;28;20399;-64
2023/09/28 07:50:05;;;;;;;17.10;3.25;;;20.30;99.90;;;;;;5029397;28;20139;-64
2023/09/28 07:52:31;;;;;;;22.10;4.15;;;20.50;99.90;;;;;;5026598;28;20046;-64
2023/09/28 07:54:57;;;;;;;18.80;3.35;;;20.50;99.90;;;;;;5029272;28;20064;-64
2023/09/28 07:57:22;;;;;;;19.42;3.58;;;20.30;99.90;;;;;;5027087;28;20049;-64
2023/09/28 07:59:48;;;;;;;19.55;4.03;;;20.30;99.90;;;;;;5032224;28;20465;-65
2023/09/28 08:02:14;;;;;;;20.73;4.00;;;20.50;99.90;;;;;;5013559;28;20127;-65
2023/09/28 08:04:40;;;;;;;17.52;3.22;;;20.70;99.90;;;;;;5030509;28;20128;-65
2023/09/28 08:07:06;;;;;;;20.95;3.47;;;20.60;99.90;;;;;;5035352;28;20527;-64
2023/09/28 08:09:33;;;;;;;19.48;3.28;;;20.60;99.90;;;;;;5037081;28;20145;-64
2023/09/28 08:11:59;;;;;;;21.05;3.75;;;20.20;99.90;;;;;;5039556;28;20037;-64
2023/09/28 08:14:25;;;;;;;24.42;4.75;;;20.10;99.90;;;;;;5032929;28;20446;-64
2023/09/28 08:16:51;;;;;;;21.85;3.97;;;20.10;99.90;;;;;;5036302;28;20040;-64
2023/09/28 08:19:17;;;;;;;21.40;3.95;;;20.40;99.90;;;;;;5038085;28;20098;-64
2023/09/28 08:21:43;;;;;;;19.95;3.70;;;20.80;99.90;;;;;;5016523;28;20241;-64
2023/09/28 08:24:11;;;;;;;15.77;3.10;;;21.10;99.90;;;;;;5017052;28;20449;-65
2023/09/28 08:26:37;;;;;;;20.55;3.30;;;21.10;99.90;;;;;;5036996;28;20147;-64
2023/09/28 08:29:04;;;;;;;24.90;3.70;;;21.20;99.90;;;;;;5035438;28;20029;-64
2023/09/28 08:31:33;;;;;;;15.63;3.10;;;21.30;99.90;;;;;;5036966;28;20397;-64
2023/09/28 08:34:00;;;;;;;21.08;3.63;;;21.30;99.90;;;;;;5035529;28;20113;-64
2023/09/28 08:36:29;;;;;;;20.52;3.63;;;21.40;99.90;;;;;;5039471;28;20048;-64
2023/09/28 08:38:56;;;;;;;23.08;3.72;;;21.00;99.90;;;;;;5036130;28;20616;-64
2023/09/28 08:41:43;;;;;;;22.00;3.50;;;21.10;99.90;;;;;;5034120;28;20291;-64
2023/09/28 08:44:10;;;;;;;17.65;3.67;;;21.20;99.90;;;;;;5039686;28;20048;-65
2023/09/28 08:46:39;;;;;;;20.23;3.08;;;21.30;99.90;;;;;;5039716;28;20079;-64
2023/09/28 08:49:10;;;;;;;17.35;3.08;;;21.40;89.90;;;;;;5038377;28;20427;-64
2023/09/28 08:51:38;;;;;;;15.93;2.60;;;21.30;79.20;;;;;;5032895;28;20124;-64
2023/09/28 08:54:05;;;;;;;20.80;3.00;;;21.30;86.80;;;;;;5037891;28;20374;-65
2023/09/28 08:56:42;;;;;;;16.35;3.13;;;21.10;63.50;;;;;;5044845;28;20045;-64
2023/09/28 08:59:09;;;;;;;13.10;2.40;;;20.90;53.20;;;;;;5038239;28;20041;-64
2023/09/28 09:01:36;;;;;;;18.00;2.53;;;20.70;45.80;;;;;;5012971;28;20368;-63
2023/09/28 09:04:03;;;;;;;19.10;3.08;;;20.50;45.20;;;;;;5039845;28;20044;-64
2023/09/28 09:06:30;;;;;;;14.77;2.33;;;20.10;56.80;;;;;;5041428;28;20053;-64
2023/09/28 09:09:05;;;;;;;12.68;2.58;;;20.10;56.90;;;;;;5043220;28;20282;-64
2023/09/28 09:11:33;;;;;;;16.02;2.80;;;20.30;59.90;;;;;;5042299;28;20091;-64
2023/09/28 09:13:59;;;;;;;14.93;2.40;;;20.40;53.80;;;;;;5030934;28;20444;-66
2023/09/28 09:16:27;;;;;;;16.58;2.20;;;20.60;48.20;;;;;;5006088;28;20079;-65
2023/09/28 09:18:53;;;;;;;18.70;3.42;;;20.50;48.30;;;;;;5035274;28;20040;-64
2023/09/28 09:21:20;;;;;;;15.93;2.65;;;20.20;43.70;;;;;;5018461;28;20254;-65
2023/09/28 09:24:04;;;;;;;17.60;2.67;;;20.10;48.70;;;;;;5036676;28;20483;-64
2023/09/28 09:26:45;;;;;;;13.57;2.00;;;20.10;43.90;;;;;;5035276;28;20057;-65
2023/09/28 09:29:12;;;;;;;17.15;3.50;;;19.90;55.50;;;;;;5034255;28;20045;-64
2023/09/28 09:31:44;;;;;;;19.50;3.08;;;19.90;68.40;;;;;;5046191;28;21163;-64
2023/09/28 09:34:18;;;;;;;20.20;3.13;;;20.10;72.00;;;;;;5022643;28;20064;-64
2023/09/28 09:37:02;;;;;;;19.05;2.72;;;20.10;81.80;;;;;;5035424;28;20029;-66
2023/09/28 09:39:32;;;;;;;17.75;3.50;;;20.30;74.60;;;;;;5040879;28;20469;-66
2023/09/28 09:41:58;;;;;;;17.73;3.10;;;20.20;71.70;;;;;;5032139;28;20195;-64
2023/09/28 09:44:25;;;;;;;22.88;3.75;;;20.10;75.20;;;;;;5042205;28;20109;-64
2023/09/28 09:46:52;;;;;;;19.60;3.08;;;20.00;74.60;;;;;;5015881;28;20057;-64
2023/09/28 09:49:19;;;;;;;16.77;3.47;;;19.80;76.40;;;;;;5019121;28;20045;-65
2023/09/28 09:51:48;;;;;;;21.77;3.72;;;19.80;81.80;;;;;;5042995;28;20575;-64
2023/09/28 09:54:19;;;;;;;18.15;3.67;;;19.60;92.50;;;;;;5033052;28;20036;-65
2023/09/28 09:56:46;;;;;;;21.10;3.53;;;19.60;94.90;;;;;;5035232;28;20041;-64
2023/09/28 09:59:17;;;;;;;20.27;3.75;;;19.60;99.10;;;;;;5034946;28;20033;-65
2023/09/28 10:01:53;;;;;;;27.73;4.40;;;19.60;99.90;;;;;;5041562;28;20494;-65
2023/09/28 10:04:21;;;;;;;21.30;4.05;;;19.70;99.90;;;;;;5036924;28;20045;-64
2023/09/28 10:06:52;;;;;;;20.70;3.97;;;19.70;98.20;;;;;;5035655;28;20049;-64
2023/09/28 10:09:22;;;;;;;16.45;2.75;;;19.90;88.50;;;;;;5039418;28;20531;-65
2023/09/28 10:11:50;;;;;;;20.67;4.30;;;20.00;81.80;;;;;;5030348;28;20072;-65
2023/09/28 10:14:21;;;;;;;22.00;3.17;;;20.10;80.50;;;;;;5038013;28;20392;-64
2023/09/28 10:16:54;;;;;;;19.17;3.85;;;20.40;81.50;;;;;;5036887;28;20106;-64
2023/09/28 10:19:25;;;;;;;19.00;3.50;;;20.60;72.80;;;;;;5038112;28;20367;-64
2023/09/28 10:21:53;;;;;;;23.27;3.30;;;20.80;68.50;;;;;;5042515;28;20119;-64
2023/09/28 10:24:29;;;;;;;22.50;3.83;;;20.80;64.40;;;;;;5038029;28;20130;-62
2023/09/28 10:26:55;;;;;;;18.08;3.78;;;20.80;55.90;;;;;;5037460;28;20300;-64
2023/09/28 10:29:30;;;;;;;22.38;3.60;;;20.80;51.50;;;;;;5032387;28;20119;-64
2023/09/28 10:31:57;;;;;;;23.70;4.22;;;20.50;56.40;;;;;;5046614;28;20167;-63
2023/09/28 10:34:24;;;;;;;25.30;4.10;;;20.40;64.20;;;;;;5034524;28;20107;-63
2023/09/28 10:37:18;;;;;;;24.35;4.28;;;20.40;65.00;;;;;;5034292;28;20502;-66
2023/09/28 10:39:53;;;;;;;21.67;4.50;;;20.40;65.10;;;;;;5028419;28;20076;-66
2023/09/28 10:42:22;;;;;;;30.90;5.40;;;20.50;69.00;;;;;;5032973;28;20418;-65
2023/09/28 10:44:50;;;;;;;26.02;4.80;;;20.60;72.00;;;;;;5029590;28;20072;-65
2023/09/28 10:47:16;;;;;;;26.70;4.18;;;20.50;71.90;;;;;;5017612;28;20032;-64
2023/09/28 10:49:42;;;;;;;26.85;4.65;;;20.50;78.20;;;;;;5041471;28;20712;-64
2023/09/28 10:52:11;;;;;;;23.35;3.85;;;20.40;83.40;;;;;;5037070;28;20062;-65
2023/09/28 10:54:38;;;;;;;22.25;3.75;;;20.40;81.00;;;;;;5030340;28;20278;-65
2023/09/28 10:57:04;;;;;;;20.40;3.55;;;20.20;91.40;;;;;;5011423;28;20441;-65
2023/09/28 10:59:30;;;;;;;18.38;3.17;;;19.90;95.80;;;;;;5049025;28;20094;-65
2023/09/28 11:01:55;;;;;;;20.05;3.15;;;20.00;95.40;;;;;;5012257;28;20140;-65
2023/09/28 11:04:22;;;;;;;20.50;3.50;;;19.90;98.40;;;;;;5028913;28;21925;-64
2023/09/28 11:06:49;;;;;;;17.25;3.17;;;20.00;99.40;;;;;;5035255;28;20044;-64
2023/09/28 11:09:19;;;;;;;23.98;3.53;;;19.90;98.30;;;;;;5036645;28;20044;-64
2023/09/28 11:11:45;;;;;;;16.73;3.42;;;20.10;97.10;;;;;;5039427;28;20047;-64
2023/09/28 11:14:11;;;;;;;22.63;3.63;;;20.10;97.20;;;;;;5037820;28;20047;-64
2023/09/28 11:16:41;;;;;;;20.08;2.78;;;20.20;97.80;;;;;;5032435;28;20040;-64
2023/09/28 11:19:09;;;;;;;17.92;2.88;;;20.20;94.70;;;;;;5039379;28;20066;-64
2023/09/28 11:21:35;;;;;;;16.88;2.40;;;20.30;76.30;;;;;;5031972;28;20097;-64
2023/09/28 11:24:04;;;;;;;19.52;2.80;;;20.30;83.90;;;;;;5036210;28;20059;-64
2023/09/28 11:26:31;;;;;;;16.13;2.50;;;20.30;71.30;;;;;;5057053;28;20056;-64
2023/09/28 11:28:58;;;;;;;14.25;2.17;;;20.30;69.90;;;;;;5031387;28;20037;-64
2023/09/28 11:31:25;;;;;;;18.63;2.45;;;20.30;69.10;;;;;;5038740;28;20053;-65
2023/09/28 11:33:50;;;;;;;18.95;2.80;;;20.40;64.60;;;;;;5039941;28;20060;-64
2023/09/28 11:36:21;;;;;;;21.33;2.28;;;20.40;61.30;;;;;;5040275;28;20112;-63
2023/09/28 11:38:48;;;;;;;17.80;2.55;;;20.40;59.10;;;;;;5052877;28;20601;-64
2023/09/28 11:41:15;;;;;;;15.05;2.10;;;20.30;56.80;;;;;;5035834;28;20049;-63
2023/09/28 11:43:56;;;;;;;16.23;2.45;;;20.10;59.40;;;;;;5043789;28;20859;-64
2023/09/28 11:46:25;;;;;;;12.50;2.45;;;20.10;64.50;;;;;;5037437;28;20103;-64
2023/09/28 11:49:11;;;;;;;14.48;1.90;;;20.10;63.90;;;;;;5034009;28;20066;-63
2023/09/28 11:51:38;;;;;;;15.35;2.47;;;19.90;66.80;;;;;;5032142;28;20538;-64
2023/09/28 11:54:09;;;;;;;15.10;2.50;;;19.80;66.50;;;;;;5033449;28;20120;-64
2023/09/28 11:56:36;;;;;;;17.95;2.72;;;19.70;73.00;;;;;;5034764;28;20082;-64
2023/09/28 11:59:01;;;;;;;15.27;2.58;;;19.60;82.20;;;;;;5031524;28;20130;-64
2023/09/28 12:01:28;;;;;;;19.40;3.15;;;19.70;91.20;;;;;;4994946;28;20044;-65
2023/09/28 12:03:54;;;;;;;14.35;2.22;;;19.60;92.60;;;;;;5056934;28;20553;-65
2023/09/28 12:06:20;;;;;;;18.90;2.90;;;19.70;93.60;;;;;;5034143;28;20132;-65
2023/09/28 12:08:46;;;;;;;16.55;2.40;;;19.70;91.00;;;;;;5038365;28;20410;-65
2023/09/28 12:11:12;;;;;;;15.60;2.25;;;19.70;82.90;;;;;;5015178;28;20668;-66
2023/09/28 12:13:38;;;;;;;19.02;2.20;;;19.80;80.50;;;;;;5016975;28;20049;-64
2023/09/28 12:16:05;;;;;;;15.68;2.10;;;19.80;82.70;;;;;;5032700;28;20372;-64
2023/09/28 12:18:32;;;;;;;14.52;2.40;;;19.70;76.70;;;;;;5033292;28;20275;-65
2023/09/28 12:20:58;;;;;;;14.73;2.35;;;19.70;72.10;;;;;;5031064;28;20190;-64
2023/09/28 12:23:25;;;;;;;17.15;2.67;;;19.70;69.50;;;;;;5016037;28;20131;-65
2023/09/28 12:25:54;;;;;;;16.92;2.50;;;19.80;68.60;;;;;;5032777;28;20055;-64
2023/09/28 12:28:22;;;;;;;15.02;2.50;;;20.00;72.30;;;;;;5035240;28;20084;-65
2023/09/28 12:30:48;;;;;;;17.52;2.58;;;20.10;66.90;;;;;;5038333;28;20040;-64
2023/09/28 12:33:14;;;;;;;17.20;2.42;;;20.00;60.80;;;;;;5040964;28;20097;-65
2023/09/28 12:35:39;;;;;;;16.23;2.45;;;20.10;59.70;;;;;;5040813;28;20045;-64
2023/09/28 12:38:07;;;;;;;16.00;1.92;;;20.10;63.10;;;;;;5034765;28;20083;-65
2023/09/28 12:40:33;;;;;;;13.15;2.15;;;20.10;66.30;;;;;;5034654;28;20339;-65
2023/09/28 12:43:05;;;;;;;16.80;3.17;;;20.20;65.80;;;;;;5037359;28;20045;-65
2023/09/28 12:45:34;;;;;;;20.77;3.40;;;20.10;59.40;;;;;;5048096;28;20325;-64
2023/09/28 12:48:05;;;;;;;23.50;3.28;;;20.00;58.80;;;;;;5030946;28;20124;-64
2023/09/28 12:50:32;;;;;;;22.38;3.83;;;20.20;62.10;;;;;;5033746;28;20080;-65
2023/09/28 12:52:58;;;;;;;24.20;3.90;;;20.20;66.50;;;;;;5039323;28;20112;-63
2023/09/28 12:55:24;;;;;;;16.80;2.83;;;20.20;65.30;;;;;;5054569;28;20083;-65
2023/09/28 12:57:51;;;;;;;20.20;3.45;;;20.00;58.40;;;;;;5032832;28;20041;-64
2023/09/28 13:00:17;;;;;;;19.08;3.08;;;19.90;57.90;;;;;;5038504;28;20041;-65
2023/09/28 13:02:46;;;;;;;20.73;3.75;;;19.90;64.30;;;;;;5040168;28;20049;-65
2023/09/28 13:05:13;;;;;;;18.70;3.38;;;20.00;67.40;;;;;;5038730;28;20072;-65
2023/09/28 13:07:40;;;;;;;18.73;3.17;;;20.10;70.20;;;;;;5038060;28;20056;-65
2023/09/28 13:10:07;;;;;;;16.15;3.28;;;20.30;63.60;;;;;;5016814;28;20057;-64
2023/09/28 13:12:33;;;;;;;19.33;3.30;;;20.20;60.60;;;;;;5038761;28;20084;-65
2023/09/28 13:14:59;;;;;;;22.85;3.83;;;20.20;65.90;;;;;;5039239;28;20268;-65
2023/09/28 13:17:27;;;;;;;17.20;3.38;;;20.30;63.30;;;;;;5040640;28;20025;-65
2023/09/28 13:19:53;;;;;;;20.67;3.53;;;20.50;58.60;;;;;;5022936;28;20543;-66
2023/09/28 13:22:19;;;;;;;19.08;3.45;;;20.50;60.20;;;;;;5042724;28;20043;-64
2023/09/28 13:24:45;;;;;;;25.95;3.55;;;20.40;54.10;;;;;;5017752;28;20064;-63
2023/09/28 13:27:11;;;;;;;20.85;3.25;;;20.20;53.60;;;;;;5037531;28;20402;-62
2023/09/28 13:29:40;;;;;;;19.70;3.33;;;20.10;59.80;;;;;;5015948;28;20349;-62
2023/09/28 13:32:08;;;;;;;20.27;2.88;;;20.20;57.50;;;;;;5038132;28;20296;-63
2023/09/28 13:34:35;;;;;;;20.35;4.18;;;20.20;54.20;;;;;;5021952;28;20040;-63
2023/09/28 13:37:01;;;;;;;23.80;3.78;;;20.30;56.70;;;;;;5039738;28;20064;-62
2023/09/28 13:39:27;;;;;;;20.98;3.58;;;20.40;55.10;;;;;;5046188;28;20044;-63
2023/09/28 13:42:01;;;;;;;18.67;3.30;;;20.60;52.30;;;;;;5045833;28;20032;-63
2023/09/28 13:44:27;;;;;;;21.27;3.42;;;20.60;45.40;;;;;;5044273;28;20048;-64
2023/09/28 13:46:55;;;;;;;18.20;3.58;;;20.60;48.30;;;;;;5051196;28;20055;-63
2023/09/28 13:49:24;;;;;;;20.85;3.92;;;20.50;51.20;;;;;;5035413;28;20468;-63
2023/09/28 13:51:53;;;;;;;15.55;3.20;;;20.40;51.60;;;;;;5047902;28;20092;-63
2023/09/28 13:54:19;;;;;;;17.48;3.55;;;20.30;54.60;;;;;;5062241;28;20056;-63